Time;durP1;ratioP1;P1;durP2;ratioP2;P2;SDS_P1;SDS_P2;PMS_P1;PMS_P2;Temp;Humidity;BMP_temperature;BMP_pressure;BME280_temperature;BME280_humidity;BME280_pressure;Samples;Min_cycle;Max_cycle;Signal;HPM_P1;HPM_P2
2021/09/28 05:51:20;;;;;;;21.25;6.55;;;;;;;15.66;58.46;101546.86;1769072;79;21050;-63
2021/09/28 05:53:48;;;;;;;15.32;4.92;;;;;;;15.19;59.52;101551.99;1768081;79;20903;-63
2021/09/28 05:58:50;;;;;;;20.70;5.33;;;;;;;14.47;62.14;101549.86;1763375;79;21082;-65
2021/09/28 06:04:13;;;;;;;8.90;4.80;;;;;;;14.01;64.31;101545.27;1761738;79;21507;-65
2021/09/28 06:06:41;;;;;;;28.95;5.55;;;;;;;13.86;65.05;101551.23;1760097;79;21112;-66
2021/09/28 06:09:11;;;;;;;33.23;5.85;;;;;;;13.79;65.84;101549.23;1771167;79;21019;-65
2021/09/28 06:19:55;;;;;;;24.70;4.35;;;;;;;13.85;67.37;101561.61;1766379;79;21634;-64
2021/09/28 06:22:27;;;;;;;12.53;4.35;;;;;;;14.02;67.38;101571.29;1764311;79;20992;-62
2021/09/28 06:24:55;;;;;;;41.18;6.75;;;;;;;14.22;67.32;101564.28;1785744;78;21203;-64
2021/09/28 06:27:23;;;;;;;36.10;6.35;;;;;;;14.39;66.71;101566.82;1783114;78;21500;-63
2021/09/28 06:29:51;;;;;;;27.98;6.50;;;;;;;14.44;66.73;101573.81;1780637;80;21071;-62
2021/09/28 06:32:19;;;;;;;25.43;5.40;;;;;;;14.55;66.93;101569.35;1765372;78;21027;-63
2021/09/28 06:34:46;;;;;;;21.82;4.15;;;;;;;14.69;66.82;101574.20;1749545;80;21104;-63
2021/09/28 06:44:09;;;;;;;9.38;4.25;;;;;;;14.80;68.83;101591.36;1692866;82;21529;-58
2021/09/28 06:46:41;;;;;;;6.70;4.25;;;;;;;14.79;69.36;101590.95;1700469;82;21063;-58
2021/09/28 06:49:08;;;;;;;21.45;5.47;;;;;;;14.74;69.74;101592.96;1697365;82;21084;-58
2021/09/28 06:51:35;;;;;;;9.83;4.62;;;;;;;14.68;70.21;101591.80;1677988;82;21822;-57
2021/09/28 06:54:02;;;;;;;15.95;4.75;;;;;;;14.64;70.58;101588.81;1687635;81;21184;-57
2021/09/28 06:56:29;;;;;;;11.45;4.58;;;;;;;14.60;71.16;101589.42;1685448;82;21167;-59
2021/09/28 06:58:58;;;;;;;12.43;4.67;;;;;;;14.69;71.34;101587.70;1684391;82;21111;-58
2021/09/28 07:01:25;;;;;;;7.75;4.60;;;;;;;14.95;71.34;101592.56;1752933;79;21070;-58
2021/09/28 07:03:53;;;;;;;10.13;4.95;;;;;;;15.20;70.48;101597.45;1756064;79;21452;-58
2021/09/28 07:06:21;;;;;;;9.15;4.42;;;;;;;15.30;70.20;101592.06;1766988;79;21516;-58
2021/09/28 07:08:50;;;;;;;6.42;4.60;;;;;;;15.35;69.67;101596.80;1760400;79;21021;-59
2021/09/28 07:11:19;;;;;;;7.22;4.62;;;;;;;15.63;69.74;101605.12;1749590;79;21107;-59
2021/09/28 07:13:48;;;;;;;9.75;4.30;;;;;;;16.41;68.24;101592.25;1754670;79;21117;-58
2021/09/28 07:16:24;;;;;;;8.28;4.80;;;;;;;16.79;65.88;101601.77;1732755;78;21143;-58
2021/09/28 07:18:52;;;;;;;10.10;5.00;;;;;;;16.64;64.91;101596.61;1749085;79;21108;-59
2021/09/28 07:21:20;;;;;;;10.55;5.12;;;;;;;16.39;65.11;101600.47;1762080;79;21420;-58
2021/09/28 07:23:47;;;;;;;8.93;5.20;;;;;;;16.15;66.17;101613.27;1749985;79;21094;-57
2021/09/28 07:26:14;;;;;;;9.45;5.40;;;;;;;15.94;67.06;101618.68;1765016;79;21020;-57
2021/09/28 07:28:42;;;;;;;8.18;5.37;;;;;;;15.73;67.80;101613.22;1714175;80;21216;-58
2021/09/28 07:31:10;;;;;;;11.97;5.05;;;;;;;15.58;68.20;101620.63;1728321;80;21159;-59
2021/09/28 07:33:37;;;;;;;7.85;5.20;;;;;;;15.44;69.04;101620.75;1766675;79;21172;-60
2021/09/28 07:36:06;;;;;;;9.85;4.90;;;;;;;15.37;69.48;101620.61;1745531;79;21186;-57
2021/09/28 07:38:33;;;;;;;7.85;5.00;;;;;;;15.29;69.58;101624.98;1766891;79;21562;-58
2021/09/28 07:41:01;;;;;;;7.05;4.65;;;;;;;15.14;69.91;101616.13;1765139;79;21139;-59
2021/09/28 07:43:29;;;;;;;9.28;4.58;;;;;;;15.08;70.74;101624.50;1721988;79;21085;-60
2021/09/28 07:45:57;;;;;;;7.30;4.55;;;;;;;15.10;70.77;101623.96;1765807;79;21630;-60
2021/09/28 07:48:25;;;;;;;10.48;4.95;;;;;;;15.12;70.93;101617.53;1758050;79;21149;-59
2021/09/28 07:50:52;;;;;;;8.78;5.42;;;;;;;15.16;71.12;101617.84;1749196;79;21203;-60
2021/09/28 07:53:48;;;;;;;11.35;4.67;;;;;;;15.22;71.46;101615.83;1734196;79;21105;-60
2021/09/28 07:56:13;;;;;;;11.65;4.85;;;;;;;15.33;71.21;101615.80;1744917;79;21198;-60
2021/09/28 07:58:42;;;;;;;10.38;5.05;;;;;;;15.49;70.54;101620.58;1753712;79;21445;-59
2021/09/28 08:01:10;;;;;;;10.58;5.30;;;;;;;15.53;69.71;101621.30;1747068;79;21452;-60
2021/09/28 08:03:39;;;;;;;9.20;4.72;;;;;;;15.50;69.96;101611.52;1757168;79;21078;-59
2021/09/28 08:06:07;;;;;;;12.18;5.05;;;;;;;15.49;69.74;101621.92;1739234;80;21116;-60
2021/09/28 08:08:35;;;;;;;13.80;7.90;;;;;;;15.44;70.26;101615.80;1751088;79;21001;-60
2021/09/28 08:11:04;;;;;;;8.90;4.62;;;;;;;15.46;70.17;101608.52;1758757;79;21546;-59
2021/09/28 08:13:31;;;;;;;6.55;4.78;;;;;;;15.58;70.25;101613.87;1759776;79;21060;-59
2021/09/28 08:15:58;;;;;;;11.43;4.78;;;;;;;15.68;69.56;101610.30;1738520;79;21059;-61
2021/09/28 08:18:29;;;;;;;8.23;4.78;;;;;;;15.72;69.77;101618.23;1758955;79;21077;-61
2021/09/28 08:20:56;;;;;;;9.88;4.72;;;;;;;15.82;69.78;101619.20;1735786;79;21184;-60
2021/09/28 08:23:24;;;;;;;12.98;4.97;;;;;;;15.84;68.66;101620.01;1738458;79;21484;-59
2021/09/28 08:31:09;;;;;;;17.20;5.40;;;;;;;15.98;68.69;101598.66;1748397;79;21076;-59
2021/09/28 08:33:37;;;;;;;26.07;5.85;;;;;;;16.08;68.05;101602.33;1754237;79;21065;-60
2021/09/28 08:36:05;;;;;;;42.40;6.05;;;;;;;16.11;68.21;101608.95;1767306;79;21048;-60
2021/09/28 08:38:33;;;;;;;23.02;6.17;;;;;;;16.11;68.42;101598.98;1756200;79;21163;-60
2021/09/28 08:41:00;;;;;;;10.32;4.97;;;;;;;16.15;68.33;101603.80;1749009;79;21106;-58
2021/09/28 08:43:28;;;;;;;14.35;5.17;;;;;;;16.15;67.65;101600.63;1763704;79;21120;-59
2021/09/28 08:45:58;;;;;;;10.88;5.15;;;;;;;16.11;67.33;101608.95;1750014;80;21965;-59
2021/09/28 08:48:27;;;;;;;12.45;5.20;;;;;;;16.10;67.00;101593.67;1763698;79;21076;-61
2021/09/28 08:50:56;;;;;;;11.93;6.42;;;;;;;16.09;67.20;101602.73;1729338;80;22225;-59
2021/09/28 08:53:23;;;;;;;10.63;5.30;;;;;;;16.09;67.63;101593.27;1747222;79;21312;-59
2021/09/28 08:55:51;;;;;;;8.85;4.90;;;;;;;16.14;67.68;101600.69;1754410;78;21265;-59
2021/09/28 08:58:23;;;;;;;9.50;4.60;;;;;;;16.19;66.71;101594.59;1761702;79;21092;-59
2021/09/28 09:03:34;;;;;;;7.42;4.67;;;;;;;16.24;66.00;101599.31;1826166;76;28104;-59
2021/09/28 09:06:07;;;;;;;12.88;4.72;;;;;;;16.15;66.44;101601.09;1758693;80;20961;-59
2021/09/28 09:08:36;;;;;;;12.68;5.10;;;;;;;16.11;66.89;101595.42;1761061;80;21472;-60
2021/09/28 09:11:10;;;;;;;30.50;5.58;;;;;;;16.12;66.64;101594.47;1764420;80;20975;-59
2021/09/28 09:13:44;;;;;;;18.73;6.28;;;;;;;16.14;66.96;101593.92;1767575;80;21103;-60
2021/09/28 09:16:15;;;;;;;25.08;5.55;;;;;;;16.25;66.01;101595.69;1762825;80;21607;-59
2021/09/28 09:18:49;;;;;;;30.12;6.50;;;;;;;16.32;65.75;101608.44;1737056;80;21614;-59
2021/09/28 09:21:18;;;;;;;16.82;5.75;;;;;;;16.39;65.20;101615.81;1758768;80;24796;-59
2021/09/28 09:23:50;;;;;;;22.37;6.28;;;;;;;16.41;65.37;101605.78;1757693;80;20965;-61
2021/09/28 09:26:21;;;;;;;13.08;4.60;;;;;;;16.43;65.83;101607.48;1735956;80;20980;-59
2021/09/28 09:28:57;;;;;;;21.45;4.70;;;;;;;16.46;63.78;101605.98;1760741;79;21560;-58
2021/09/28 09:31:37;;;;;;;12.05;5.08;;;;;;;16.44;63.26;101603.83;1788896;79;21028;-59
2021/09/28 09:34:14;;;;;;;7.35;4.45;;;;;;;16.42;62.71;101614.31;1763645;80;21148;-60
2021/09/28 09:36:43;;;;;;;8.03;4.45;;;;;;;16.38;62.76;101604.58;1766642;80;21091;-59
2021/09/28 09:39:10;;;;;;;7.70;4.50;;;;;;;16.41;62.81;101599.02;1761996;80;21542;-59
2021/09/28 09:41:39;;;;;;;10.53;3.70;;;;;;;16.49;62.31;101600.92;1759267;79;21952;-60
2021/09/28 09:44:13;;;;;;;6.15;3.80;;;;;;;16.53;60.71;101610.65;1764224;80;21020;-59
2021/09/28 09:46:47;;;;;;;14.45;3.90;;;;;;;16.53;60.62;101599.82;1760128;80;21591;-59
2021/09/28 09:49:16;;;;;;;23.42;4.05;;;;;;;16.55;60.84;101601.98;1754928;80;21059;-60
2021/09/28 09:51:52;;;;;;;21.35;3.62;;;;;;;16.61;59.92;101606.23;1766998;80;21087;-59
2021/09/28 09:54:36;;;;;;;8.05;2.67;;;;;;;16.61;58.51;101605.74;1769566;79;21095;-60
2021/09/28 09:57:08;;;;;;;8.38;2.92;;;;;;;16.63;57.63;101609.75;1767177;79;21011;-58
2021/09/28 09:59:35;;;;;;;10.58;2.80;;;;;;;16.63;57.85;101607.50;1792147;78;21453;-59
2021/09/28 10:02:03;;;;;;;14.07;3.55;;;;;;;16.61;57.63;101605.74;1794330;78;21032;-59
2021/09/28 10:04:30;;;;;;;21.00;3.45;;;;;;;16.64;57.15;101610.14;1796843;78;21558;-58
2021/09/28 10:07:05;;;;;;;21.00;3.80;;;;;;;16.64;57.27;101607.44;1792218;78;22271;-58
2021/09/28 10:09:38;;;;;;;15.90;3.80;;;;;;;16.63;57.75;101607.50;1799149;78;21586;-60
2021/09/28 10:12:12;;;;;;;6.80;3.25;;;;;;;16.64;58.38;101604.73;1797306;78;21083;-59
2021/09/28 10:14:44;;;;;;;8.58;3.50;;;;;;;16.66;58.40;101605.99;1770574;78;21079;-60
2021/09/28 10:17:39;;;;;;;7.35;3.42;;;;;;;16.65;58.57;101611.01;1802919;78;21071;-58
2021/09/28 10:20:06;;;;;;;14.60;3.47;;;;;;;16.60;57.83;101608.05;1794806;78;21095;-59
2021/09/28 10:22:39;;;;;;;8.40;2.70;;;;;;;16.47;58.79;101611.80;1790423;78;21043;-59
2021/09/28 10:25:39;;;;;;;17.02;3.62;;;;;;;16.41;58.20;101603.98;1790985;78;21111;-61
2021/09/28 10:28:15;;;;;;;9.15;2.95;;;;;;;16.41;58.81;101605.78;1793375;78;21083;-60
2021/09/28 10:30:47;;;;;;;4.22;2.65;;;;;;;16.38;58.62;101596.00;1786075;78;21097;-59
2021/09/28 10:33:29;;;;;;;11.05;3.62;;;;;;;16.39;58.31;101604.52;1793436;78;21186;-59
2021/09/28 10:36:14;;;;;;;6.17;2.87;;;;;;;16.45;58.21;101607.39;1792406;78;21044;-59
2021/09/28 10:38:59;;;;;;;6.25;2.87;;;;;;;16.41;59.10;101594.96;1797184;78;21069;-59
2021/09/28 10:41:45;;;;;;;5.53;2.90;;;;;;;16.49;59.82;101595.50;1781829;79;21050;-59
2021/09/28 10:44:36;;;;;;;6.45;3.85;;;;;;;16.65;59.74;101597.47;1770766;79;20934;-60
2021/09/28 10:46:59;;;;;;;4.17;2.95;;;;;;;16.75;59.15;101604.22;1773872;79;21067;-59
2021/09/28 10:49:31;;;;;;;6.72;2.90;;;;;;;16.76;58.22;101597.36;1800699;78;21102;-59
2021/09/28 10:52:25;;;;;;;7.72;2.60;;;;;;;16.76;57.58;101604.62;1799732;78;21759;-60
2021/09/28 10:55:14;;;;;;;6.75;3.25;;;;;;;16.80;58.32;101604.88;1777054;79;20952;-59
2021/09/28 10:58:13;;;;;;;7.40;2.87;;;;;;;16.82;58.04;101600.26;1759283;80;21500;-59
2021/09/28 11:00:49;;;;;;;7.00;3.00;;;;;;;16.80;57.58;101603.98;1792435;78;21087;-59
2021/09/28 11:03:18;;;;;;;4.87;2.50;;;;;;;16.78;57.43;101603.17;1797203;78;21436;-59
2021/09/28 11:05:56;;;;;;;4.42;2.75;;;;;;;16.84;56.42;101600.20;1793604;79;21462;-59
2021/09/28 11:08:23;;;;;;;5.55;2.70;;;;;;;16.92;56.29;101600.70;1754409;80;21103;-60
2021/09/28 11:10:59;;;;;;;3.33;2.52;;;;;;;16.99;56.53;101595.91;1767657;80;21112;-60
2021/09/28 11:13:31;;;;;;;8.60;2.80;;;;;;;16.99;56.44;101594.55;1789752;78;21399;-59
2021/09/28 11:16:04;;;;;;;7.12;2.58;;;;;;;16.96;56.48;101593.31;1787255;79;21044;-59
2021/09/28 11:18:32;;;;;;;4.65;2.67;;;;;;;16.97;55.54;101592.36;1787840;79;21096;-59
2021/09/28 11:21:12;;;;;;;4.80;2.55;;;;;;;17.01;55.57;101591.28;1765475;79;20998;-60
2021/09/28 11:23:40;;;;;;;7.28;2.98;;;;;;;17.03;55.29;101592.08;1760757;80;21421;-59
2021/09/28 11:26:09;;;;;;;5.12;3.17;;;;;;;17.09;55.33;101594.48;1765697;80;21079;-60
2021/09/28 11:28:47;;;;;;;6.17;3.00;;;;;;;17.15;54.57;101602.79;1766637;80;20952;-60
2021/09/28 11:31:15;;;;;;;3.62;2.80;;;;;;;17.14;53.92;101596.52;1738451;80;21834;-59
2021/09/28 11:33:45;;;;;;;4.92;3.47;;;;;;;17.11;53.88;101593.06;1768314;80;21096;-59
2021/09/28 11:36:14;;;;;;;4.08;2.75;;;;;;;17.10;53.25;101588.11;1767890;80;21044;-59
2021/09/28 11:38:46;;;;;;;9.13;2.95;;;;;;;17.14;53.17;101592.91;1760698;80;21064;-60
2021/09/28 11:41:22;;;;;;;6.45;2.50;;;;;;;17.18;53.20;101599.47;1768543;79;21130;-59
2021/09/28 11:43:54;;;;;;;3.20;2.75;;;;;;;17.14;52.88;101596.52;1767828;79;21516;-60
2021/09/28 11:46:24;;;;;;;5.50;2.20;;;;;;;17.12;53.15;101592.11;1770714;79;21072;-60
2021/09/28 11:48:58;;;;;;;3.40;1.98;;;;;;;17.12;53.00;101591.61;1769415;79;21381;-59
2021/09/28 11:51:30;;;;;;;;;;;;;;;17.16;52.17;101584.22;1765673;79;21078;-59
2021/09/28 11:54:02;;;;;;;3.60;2.30;;;;;;;17.21;51.63;101587.58;1769813;79;20165;-59
2021/09/28 11:56:35;;;;;;;4.37;2.05;;;;;;;17.26;51.84;101580.12;1788737;78;21123;-59
2021/09/28 11:59:02;;;;;;;4.37;2.45;;;;;;;17.29;52.18;101586.73;1768203;79;21090;-60
2021/09/28 12:01:29;;;;;;;6.40;1.98;;;;;;;17.32;51.78;101585.22;1772679;79;20979;-60
2021/09/28 12:07:57;;;;;;;2.17;1.90;;;;;;;17.29;52.53;101592.61;1762955;80;21088;-60
2021/09/28 12:09:57;;;;;;;2.98;1.75;;;;;;;17.32;52.78;101595.17;1714209;81;21163;-60
2021/09/28 12:12:28;;;;;;;2.75;1.80;;;;;;;17.30;50.60;101591.66;1761875;80;21012;-59
2021/09/28 12:14:57;;;;;;;12.25;2.55;;;;;;;17.23;50.37;101595.15;1741492;80;21003;-60
2021/09/28 12:17:38;;;;;;;9.25;2.55;;;;;;;17.23;51.07;101587.52;1739406;81;21610;-60
2021/09/28 12:20:15;;;;;;;4.20;2.05;;;;;;;17.28;51.68;101594.93;1760853;80;21076;-61
2021/09/28 12:22:56;;;;;;;4.00;2.42;;;;;;;17.31;51.42;101589.34;1725207;82;21152;-61
2021/09/28 12:25:33;;;;;;;6.22;4.45;;;;;;;17.39;52.06;101587.16;1761268;80;22213;-59
2021/09/28 12:28:18;;;;;;;5.22;3.85;;;;;;;17.42;51.93;101589.70;1757839;78;20940;-60
2021/09/28 12:30:54;;;;;;;2.60;2.12;;;;;;;17.49;51.20;101592.09;1768138;78;20925;-59
2021/09/28 12:33:23;;;;;;;4.22;2.25;;;;;;;17.56;51.69;101593.52;1720687;80;21433;-60
2021/09/28 12:35:56;;;;;;;2.33;1.82;;;;;;;17.71;51.47;101593.23;1762356;80;22789;-61
2021/09/28 12:38:25;;;;;;;3.25;2.40;;;;;;;17.84;50.54;101593.47;1758896;80;21019;-60
2021/09/28 12:41:06;;;;;;;2.35;1.80;;;;;;;17.84;50.22;101594.83;1761043;80;21467;-59
2021/09/28 12:43:35;;;;;;;5.00;3.22;;;;;;;17.86;50.03;101599.70;1756504;80;21028;-60
2021/09/28 12:46:04;;;;;;;3.45;2.30;;;;;;;17.90;50.51;101603.99;1730824;80;21149;-59
2021/09/28 12:48:41;;;;;;;4.72;2.35;;;;;;;17.96;51.50;101606.37;1756326;80;21513;-60
2021/09/28 12:51:16;;;;;;;6.92;2.45;;;;;;;18.01;51.60;101607.03;1769016;80;20944;-60
2021/09/28 12:53:44;;;;;;;4.25;2.85;;;;;;;17.97;51.96;101605.41;1758357;80;21071;-59
2021/09/28 12:56:11;;;;;;;4.00;2.72;;;;;;;17.94;52.45;101611.01;1742225;80;21021;-59
2021/09/28 12:58:38;;;;;;;3.67;2.70;;;;;;;17.95;52.97;101603.77;1758244;80;21072;-59
2021/09/28 13:01:06;;;;;;;2.83;2.47;;;;;;;17.95;53.21;101614.12;1736475;80;21628;-58
2021/09/28 13:03:33;;;;;;;4.47;2.52;;;;;;;18.01;52.77;101603.42;1779067;78;21348;-60
2021/09/28 13:06:08;;;;;;;4.37;2.75;;;;;;;18.09;52.59;101609.34;1798743;78;21015;-59
2021/09/28 13:08:38;;;;;;;5.78;3.00;;;;;;;18.14;52.60;101616.79;1800119;78;27001;-59
2021/09/28 13:11:11;;;;;;;6.80;2.72;;;;;;;18.14;52.42;101618.61;1792693;78;20937;-60
2021/09/28 13:13:40;;;;;;;5.65;2.70;;;;;;;18.11;52.48;101620.13;1767912;78;22417;-59
2021/09/28 13:16:08;;;;;;;4.97;2.52;;;;;;;18.08;52.80;101622.52;1750834;78;21691;-60
2021/09/28 13:18:38;;;;;;;2.83;2.42;;;;;;;18.06;51.71;101620.86;1765804;80;21577;-60
2021/09/28 13:21:05;;;;;;;5.05;2.58;;;;;;;17.99;51.78;101618.41;1798811;78;21059;-60
2021/09/28 13:23:37;;;;;;;2.52;2.33;;;;;;;17.98;52.23;101622.09;1798422;78;21044;-61
2021/09/28 13:26:04;;;;;;;3.27;2.65;;;;;;;17.98;52.23;101623.45;1791822;78;21632;-62
2021/09/28 13:28:32;;;;;;;11.43;7.37;;;;;;;18.01;52.49;101626.03;1784875;79;21495;-60
2021/09/28 13:30:59;;;;;;;3.72;2.50;;;;;;;17.98;52.15;101620.73;1793674;78;21023;-60
2021/09/28 13:33:26;;;;;;;8.53;2.22;;;;;;;17.94;52.25;101623.22;1784633;78;22172;-60
2021/09/28 13:35:55;;;;;;;2.83;2.10;;;;;;;17.93;51.17;101624.67;1785975;78;21012;-60
2021/09/28 13:38:24;;;;;;;7.80;2.15;;;;;;;17.95;50.45;101631.75;1806685;78;21029;-59
2021/09/28 13:40:52;;;;;;;4.80;2.33;;;;;;;17.90;50.08;101629.77;1794850;78;21496;-60
2021/09/28 13:43:19;;;;;;;5.10;2.40;;;;;;;17.89;50.24;101631.58;1785469;78;21407;-59
2021/09/28 13:45:47;;;;;;;3.87;2.17;;;;;;;17.89;50.22;101626.66;1786647;78;21076;-61
2021/09/28 13:48:15;;;;;;;2.22;1.92;;;;;;;17.94;50.16;101634.56;1787206;78;21478;-61
2021/09/28 13:50:43;;;;;;;6.33;1.95;;;;;;;17.95;50.13;101628.17;1794499;78;21464;-59
2021/09/28 13:53:11;;;;;;;4.75;2.08;;;;;;;17.96;50.56;101628.58;1778951;78;21499;-59
2021/09/28 13:55:38;;;;;;;2.72;2.15;;;;;;;17.97;50.83;101634.39;1790052;78;21087;-59
2021/09/28 13:58:06;;;;;;;4.42;2.45;;;;;;;18.00;51.31;101632.88;1799233;78;21071;-60
2021/09/28 14:00:33;;;;;;;10.23;2.75;;;;;;;17.98;51.57;101635.66;1790752;78;21098;-58
2021/09/28 14:03:00;;;;;;;7.20;2.42;;;;;;;17.91;51.43;101634.23;1789657;78;21131;-58
2021/09/28 14:05:28;;;;;;;6.42;2.35;;;;;;;17.81;51.43;101637.03;1793485;78;21020;-60
2021/09/28 14:07:57;;;;;;;8.58;2.50;;;;;;;17.75;51.91;101628.23;1792195;78;20988;-61
2021/09/28 14:10:25;;;;;;;11.18;2.65;;;;;;;17.79;51.99;101625.36;1790188;78;22230;-59
2021/09/28 14:12:54;;;;;;;5.47;2.30;;;;;;;17.76;51.61;101626.41;1792847;78;20999;-60
2021/09/28 14:15:23;;;;;;;5.78;2.52;;;;;;;17.72;51.89;101622.97;1796525;78;21340;-61
2021/09/28 14:17:50;;;;;;;17.95;2.72;;;;;;;17.72;51.23;101625.69;1790039;78;21512;-58
2021/09/28 14:20:18;;;;;;;22.30;3.40;;;;;;;17.72;50.66;101628.40;1789807;78;21090;-61
2021/09/28 14:22:47;;;;;;;11.78;3.05;;;;;;;17.73;50.41;101626.58;1788691;78;21484;-59
2021/09/28 14:25:14;;;;;;;16.12;3.52;;;;;;;17.75;50.19;101622.81;1788439;78;21131;-59
2021/09/28 14:27:42;;;;;;;9.65;2.72;;;;;;;17.76;50.21;101628.63;1797184;78;21812;-60
2021/09/28 14:30:10;;;;;;;10.98;3.62;;;;;;;17.76;50.32;101631.34;1793899;78;21020;-60
2021/09/28 14:32:38;;;;;;;2.50;2.30;;;;;;;17.69;50.88;101629.05;1793842;78;20897;-61
2021/09/28 14:35:05;;;;;;;5.47;2.35;;;;;;;17.62;51.48;101632.55;1788303;78;21087;-59
2021/09/28 14:37:33;;;;;;;5.87;2.30;;;;;;;17.64;51.74;101634.70;1792418;78;20913;-59
2021/09/28 14:40:00;;;;;;;8.53;5.17;;;;;;;17.58;51.73;101638.59;1778808;79;22226;-59
2021/09/28 14:42:28;;;;;;;20.90;12.75;;;;;;;17.52;51.93;101638.02;1755146;80;21592;-60
2021/09/28 14:44:55;;;;;;;11.83;2.37;;;;;;;17.51;52.12;101640.33;1788399;79;20996;-59
2021/09/28 14:47:22;;;;;;;5.05;2.02;;;;;;;17.45;52.02;101642.87;1785481;78;21059;-59
2021/09/28 14:49:50;;;;;;;3.52;2.08;;;;;;;17.40;51.99;101649.89;1766774;80;21102;-59
2021/09/28 14:52:17;;;;;;;6.87;2.00;;;;;;;17.38;51.49;101646.39;1776054;79;21130;-59
2021/09/28 14:54:44;;;;;;;2.60;2.00;;;;;;;17.33;51.83;101637.58;1795485;78;21055;-59
2021/09/28 14:57:11;;;;;;;8.58;2.25;;;;;;;17.31;52.07;101636.78;1795767;78;21077;-59
2021/09/28 14:59:39;;;;;;;4.22;2.33;;;;;;;17.31;52.11;101637.67;1795268;78;20983;-60
2021/09/28 15:02:06;;;;;;;3.08;1.87;;;;;;;17.27;52.24;101646.02;1798696;78;21046;-59
2021/09/28 15:04:33;;;;;;;4.25;2.02;;;;;;;17.27;52.17;101644.20;1795318;78;22412;-59
2021/09/28 15:07:03;;;;;;;4.58;2.00;;;;;;;17.29;52.14;101644.11;1710972;81;21084;-59
2021/09/28 15:09:31;;;;;;;2.10;1.90;;;;;;;17.29;52.11;101642.30;1737779;81;21070;-59
2021/09/28 15:11:58;;;;;;;2.80;1.90;;;;;;;17.23;51.46;101643.92;1740362;81;21369;-59
2021/09/28 15:14:56;;;;;;;;;;;;;;;;;;;;;
2021/09/28 15:17:46;;;;;;;3.15;1.90;;;;;;;17.20;50.98;101653.56;1732240;81;20976;-58
2021/09/28 15:20:23;;;;;;;4.10;1.90;;;;;;;17.13;50.64;101654.37;1728979;81;20960;-59
2021/09/28 15:22:50;;;;;;;5.08;2.35;;;;;;;17.00;50.76;101658.11;1746060;81;20964;-59
2021/09/28 15:25:17;;;;;;;10.18;1.95;;;;;;;16.95;50.96;101659.27;1742694;81;21035;-60
2021/09/28 15:27:45;;;;;;;6.00;2.05;;;;;;;16.89;51.30;101653.17;1740279;81;21130;-60
2021/09/28 15:30:13;;;;;;;3.35;2.40;;;;;;;16.87;51.62;101659.63;1734535;81;21160;-60
2021/09/28 15:32:40;;;;;;;3.22;2.17;;;;;;;16.85;51.86;101662.40;1738966;81;21532;-58
2021/09/28 15:35:08;;;;;;;3.05;2.12;;;;;;;16.84;51.74;101653.87;1732846;81;20980;-60
2021/09/28 15:37:37;;;;;;;4.37;2.77;;;;;;;16.77;52.11;101648.35;1780843;79;21032;-59
2021/09/28 15:40:07;;;;;;;7.45;2.80;;;;;;;16.77;52.23;101659.19;1795114;79;21528;-60
2021/09/28 15:42:34;;;;;;;5.78;2.98;;;;;;;16.80;52.19;101655.44;1783513;79;21164;-60
2021/09/28 15:45:01;;;;;;;7.33;3.08;;;;;;;16.78;51.96;101665.00;1788895;79;20960;-60
2021/09/28 15:47:29;;;;;;;8.75;3.50;;;;;;;16.72;52.28;101664.80;1792458;79;21035;-60
2021/09/28 15:49:58;;;;;;;11.22;3.37;;;;;;;16.69;52.76;101669.47;1771118;79;21442;-61
2021/09/28 15:52:26;;;;;;;6.62;3.42;;;;;;;16.73;52.66;101657.58;1794691;79;20850;-60
2021/09/28 15:54:53;;;;;;;8.05;3.25;;;;;;;16.69;52.52;101664.95;1792143;78;21806;-60
2021/09/28 15:57:20;;;;;;;11.05;3.50;;;;;;;16.61;52.59;101670.72;1729151;81;21100;-61
2021/09/28 15:59:48;;;;;;;11.78;4.42;;;;;;;16.53;52.65;101666.14;1732385;81;21056;-60
2021/09/28 16:02:18;;;;;;;9.65;3.80;;;;;;;16.46;53.01;101671.41;1733566;81;21063;-60
2021/09/28 16:04:45;;;;;;;16.07;5.05;;;;;;;16.38;53.11;101676.30;1780954;79;21099;-60
2021/09/28 16:07:16;;;;;;;12.60;4.45;;;;;;;16.33;53.48;101671.97;1796031;78;21132;-61
2021/09/28 16:09:44;;;;;;;18.77;4.87;;;;;;;16.32;53.25;101683.75;1774417;79;21039;-60
2021/09/28 16:12:11;;;;;;;12.60;4.47;;;;;;;16.27;53.29;101688.95;1765445;79;21079;-58
2021/09/28 16:14:38;;;;;;;10.95;4.97;;;;;;;16.21;53.36;101691.45;1773488;79;20999;-58
2021/09/28 16:17:05;;;;;;;17.55;5.10;;;;;;;16.15;53.14;101690.37;1776137;79;21614;-59
2021/09/28 16:19:32;;;;;;;13.80;4.17;;;;;;;16.08;53.71;101698.36;1774419;79;21036;-59
2021/09/28 16:21:59;;;;;;;13.78;4.80;;;;;;;16.06;53.78;101696.20;1776797;79;21055;-62
2021/09/28 16:24:26;;;;;;;11.70;5.17;;;;;;;16.07;54.00;101704.71;1779711;79;21112;-60
2021/09/28 16:26:53;;;;;;;15.83;5.50;;;;;;;16.06;54.16;101702.95;1765233;79;21385;-58
2021/09/28 16:29:20;;;;;;;13.48;6.25;;;;;;;16.04;54.38;101705.71;1764848;79;21126;-58
2021/09/28 16:31:47;;;;;;;25.25;6.78;;;;;;;16.10;54.50;101712.69;1799818;78;21445;-60
2021/09/28 16:34:14;;;;;;;13.93;6.20;;;;;;;16.11;54.49;101705.84;1789766;78;21072;-59
2021/09/28 16:36:41;;;;;;;15.85;6.12;;;;;;;16.10;54.53;101709.98;1800156;78;21425;-59
2021/09/28 16:39:08;;;;;;;15.40;5.87;;;;;;;16.10;54.52;101714.05;1790308;78;21167;-59
2021/09/28 16:41:35;;;;;;;9.15;5.67;;;;;;;16.12;54.79;101717.56;1785935;78;21066;-59
2021/09/28 16:44:02;;;;;;;17.87;5.53;;;;;;;16.13;54.53;101722.89;1764940;80;21944;-59
2021/09/28 16:46:29;;;;;;;11.93;4.80;;;;;;;16.09;54.66;101714.50;1789848;78;21525;-58
2021/09/28 16:48:56;;;;;;;12.50;6.10;;;;;;;16.08;54.74;101724.05;1798433;78;20941;-58
2021/09/28 16:51:23;;;;;;;11.08;4.87;;;;;;;16.04;54.91;101728.70;1801385;78;21131;-62
2021/09/28 16:53:52;;;;;;;13.32;5.70;;;;;;;16.01;54.94;101720.72;1777460;80;20929;-60
2021/09/28 16:56:19;;;;;;;10.08;5.62;;;;;;;15.98;55.26;101719.51;1768410;80;21493;-58
2021/09/28 16:58:46;;;;;;;14.07;5.80;;;;;;;15.98;55.42;101719.02;1738178;80;21100;-58
2021/09/28 17:01:13;;;;;;;13.03;5.62;;;;;;;15.99;55.38;101721.27;1757146;80;21586;-59
2021/09/28 17:03:40;;;;;;;12.33;5.72;;;;;;;15.99;55.55;101726.19;1781495;79;20955;-61
2021/09/28 17:06:08;;;;;;;9.70;6.60;;;;;;;15.99;55.54;101730.24;1751522;78;21583;-62
2021/09/28 17:08:35;;;;;;;15.40;7.20;;;;;;;15.99;55.41;101730.24;1724272;82;21386;-61
2021/09/28 17:11:02;;;;;;;14.05;7.00;;;;;;;15.96;55.69;101730.86;1750419;80;21008;-59
2021/09/28 17:13:29;;;;;;;17.85;7.22;;;;;;;15.90;56.02;101733.34;1762775;80;20972;-59
2021/09/28 17:15:56;;;;;;;20.00;8.30;;;;;;;15.88;56.28;101731.15;1734176;81;21490;-58
2021/09/28 17:18:23;;;;;;;21.35;8.20;;;;;;;15.86;56.51;101734.39;1760654;80;21024;-59
2021/09/28 17:20:53;;;;;;;13.88;7.78;;;;;;;15.84;56.71;101734.44;1780965;79;21001;-61
2021/09/28 17:23:21;;;;;;;18.85;9.30;;;;;;;15.83;56.79;101733.17;1768166;80;21040;-58
2021/09/28 17:25:50;;;;;;;17.62;8.95;;;;;;;15.84;56.95;101737.64;1770720;79;21084;-59
2021/09/28 17:28:18;;;;;;;20.08;8.03;;;;;;;15.81;57.12;101736.41;1770241;80;21465;-60
2021/09/28 17:30:49;;;;;;;19.40;8.10;;;;;;;15.77;57.42;101741.06;1758014;79;21592;-61
2021/09/28 17:33:17;;;;;;;27.20;7.17;;;;;;;15.73;57.71;101743.00;1763065;79;21092;-60
2021/09/28 17:35:44;;;;;;;14.18;6.45;;;;;;;15.67;57.89;101739.66;1758658;80;21021;-58
2021/09/28 17:38:12;;;;;;;20.90;6.53;;;;;;;15.59;57.83;101738.16;1760027;80;21036;-58
2021/09/28 17:40:39;;;;;;;24.52;5.83;;;;;;;15.54;57.91;101736.57;1767378;79;21454;-61
2021/09/28 17:43:07;;;;;;;34.98;5.70;;;;;;;15.49;58.07;101738.13;1769562;80;21530;-60
2021/09/28 17:45:35;;;;;;;28.90;5.97;;;;;;;15.45;58.12;101744.12;1757472;79;20968;-60
2021/09/28 17:48:07;;;;;;;38.30;7.03;;;;;;;15.42;58.40;101743.34;1763286;79;21079;-61
2021/09/28 17:50:34;;;;;;;25.72;6.87;;;;;;;15.38;58.56;101733.16;1773616;79;21070;-60
2021/09/28 17:53:07;;;;;;;34.95;6.97;;;;;;;15.35;58.79;101733.73;1777153;80;21730;-58
2021/09/28 17:58:15;;;;;;;;;;;;;;;15.26;59.29;101736.33;1782913;79;21495;-60
2021/09/28 18:00:46;;;;;;;45.38;7.12;;;;;;;15.20;59.69;101741.48;1699894;81;20422;-59
2021/09/28 18:03:16;;;;;;;35.63;6.75;;;;;;;15.14;60.11;101748.48;1757508;79;21162;-61